createdAt,value
2016-04-13T00:00:11.891Z,9.48
2016-04-13T00:01:11.925Z,9.47
2016-04-13T00:02:11.928Z,9.48
2016-04-13T00:03:12.055Z,9.47
2016-04-13T00:04:11.980Z,9.37
2016-04-13T00:05:12.639Z,9.42
2016-04-13T00:06:11.923Z,9.3
2016-04-13T00:07:12.019Z,9.29
2016-04-13T00:08:24.779Z,9.42
2016-04-13T00:09:12.045Z,9.31
2016-04-13T00:10:31.284Z,9.29
2016-04-13T00:11:12.706Z,9.26
2016-04-13T00:12:12.131Z,9.29
2016-04-13T00:13:12.118Z,9.27
2016-04-13T00:14:24.889Z,9.21
2016-04-13T00:15:24.908Z,9.12
2016-04-13T00:16:31.644Z,9.13
2016-04-13T00:17:31.444Z,9.19
2016-04-13T00:18:12.272Z,9.15
2016-04-13T00:19:12.259Z,9.18
2016-04-13T00:20:12.449Z,9.13
2016-04-13T00:21:18.609Z,9.16
2016-04-13T00:22:12.518Z,9.05
2016-04-13T00:23:12.301Z,9.11
2016-04-13T00:24:12.336Z,9.03
2016-04-13T00:26:22.500Z,9.13
2016-04-13T00:27:41.815Z,9.11
2016-04-13T00:28:22.740Z,9.12
2016-04-13T00:29:53.899Z,9.12
2016-04-13T00:30:32.151Z,9.11
2016-04-13T00:31:32.201Z,9.05
2016-04-13T00:32:32.797Z,9.11
2016-04-13T00:33:32.206Z,9
2016-04-13T00:34:44.974Z,9.13
2016-04-13T00:35:38.493Z,9
2016-04-13T00:36:51.542Z,9.02
2016-04-13T00:37:32.279Z,8.93
2016-04-13T00:38:51.516Z,8.96
2016-04-13T00:39:32.519Z,8.89
2016-04-13T00:40:57.991Z,8.92
2016-04-13T00:41:32.384Z,8.9
2016-04-13T00:42:32.371Z,8.84
2016-04-13T00:43:45.123Z,8.79
2016-04-13T00:44:32.376Z,8.78
2016-04-13T00:45:51.629Z,8.72
2016-04-13T00:46:38.882Z,8.75
2016-04-13T00:47:51.650Z,8.77
2016-04-13T00:48:45.403Z,8.69
2016-04-13T00:49:32.500Z,8.74
2016-04-13T00:50:32.517Z,8.63
2016-04-13T00:51:32.613Z,8.69
2016-04-13T00:52:38.819Z,8.61
2016-04-13T00:53:32.775Z,8.53
2016-04-13T00:54:45.325Z,8.52
2016-04-13T00:55:32.608Z,8.6
2016-04-13T00:56:58.346Z,8.56
2016-04-13T00:57:36.583Z,8.57
2016-04-13T00:59:07.913Z,8.64
2016-04-13T00:59:36.635Z,8.57
2016-04-13T01:00:36.654Z,8.56
2016-04-13T01:01:36.656Z,8.69
2016-04-13T01:02:49.518Z,8.57
2016-04-13T01:03:36.709Z,8.57
2016-04-13T01:04:36.820Z,8.54
2016-04-13T01:05:43.104Z,8.56
2016-04-13T01:06:36.748Z,8.52
2016-04-13T01:07:49.516Z,8.56
2016-04-13T01:09:08.098Z,8.53
2016-04-13T01:09:51.960Z,8.49
2016-04-13T01:10:51.978Z,8.52
2016-04-13T01:11:51.995Z,8.53
2016-04-13T01:13:04.847Z,8.61
2016-04-13T01:14:04.771Z,8.61
2016-04-13T01:15:17.726Z,8.72
2016-04-13T01:16:04.807Z,8.71
2016-04-13T01:17:17.794Z,8.71
2016-04-13T01:18:17.781Z,8.75
2016-04-13T01:19:23.443Z,8.84
2016-04-13T01:20:23.462Z,8.93
2016-04-13T01:20:52.165Z,8.93
2016-04-13T01:21:52.168Z,8.89
2016-04-13T01:22:52.189Z,8.99
2016-04-13T01:23:52.208Z,9.02
2016-04-13T01:25:04.976Z,8.99
2016-04-13T01:25:52.869Z,9.13
2016-04-13T01:27:11.481Z,9.03
2016-04-13T01:27:52.281Z,9.02
2016-04-13T01:28:52.299Z,9.11
2016-04-13T01:29:52.318Z,9.12
2016-04-13T01:30:52.336Z,9.16
2016-04-13T01:31:52.369Z,9.13
2016-04-13T01:32:52.372Z,9.21
2016-04-13T01:33:52.375Z,9.13
2016-04-13T01:35:05.143Z,9.16
2016-04-13T01:35:52.427Z,9.21
2016-04-13T01:37:11.648Z,9.19
2016-04-13T01:37:52.448Z,9.29
2016-04-13T01:38:52.498Z,9.31
2016-04-13T01:40:05.235Z,9.31
2016-04-13T01:40:52.504Z,9.33
2016-04-13T01:42:11.756Z,9.49
2016-04-13T01:42:52.712Z,9.45
2016-04-13T01:44:18.231Z,9.44
2016-04-13T01:45:02.155Z,9.56
2016-04-13T01:46:02.142Z,9.55
2016-04-13T01:47:02.160Z,9.55
2016-04-13T01:48:14.898Z,9.66
2016-04-13T01:49:02.290Z,9.72
2016-04-13T01:50:21.403Z,9.76
2016-04-13T01:51:02.889Z,9.73
2016-04-13T01:52:28.005Z,9.77
2016-04-13T01:53:02.114Z,9.76
2016-04-13T01:55:11.880Z,9.8
2016-04-13T01:56:11.925Z,9.8
2016-04-13T01:57:24.768Z,9.84
2016-04-13T01:58:12.034Z,9.92
2016-04-13T01:59:12.093Z,9.91
2016-04-13T02:00:12.149Z,9.91
2016-04-13T02:01:18.447Z,9.91
2016-04-13T02:02:18.497Z,10.03
2016-04-13T02:03:26.423Z,9.95
2016-04-13T02:04:25.064Z,10.02
2016-04-13T02:05:15.361Z,9.95
2016-04-13T02:06:12.245Z,9.94
2016-04-13T02:07:12.392Z,9.99
2016-04-13T02:08:13.042Z,9.94
2016-04-13T02:09:12.409Z,10.07
2016-04-13T02:10:25.249Z,10
2016-04-13T02:11:12.452Z,9.94
2016-04-13T02:12:38.164Z,9.94
2016-04-13T02:13:12.508Z,9.97
2016-04-13T02:14:12.498Z,10.05
2016-04-13T02:15:19.407Z,10.05
2016-04-13T02:16:18.817Z,10.02
2016-04-13T02:17:12.571Z,10.09
2016-04-13T02:18:12.590Z,10.07
2016-04-13T02:19:12.640Z,10.1
2016-04-13T02:20:13.237Z,10.05
2016-04-13T02:21:25.475Z,10.09
2016-04-13T02:22:12.525Z,10.12
2016-04-13T02:23:12.700Z,10.07
2016-04-13T02:24:12.703Z,10.09
2016-04-13T02:25:25.487Z,10
2016-04-13T02:26:12.756Z,10.09
2016-04-13T02:27:31.964Z,10.07
2016-04-13T02:28:12.776Z,10.05
2016-04-13T02:29:12.811Z,10.1
2016-04-13T02:30:12.814Z,10.07
2016-04-13T02:31:12.832Z,10.07
2016-04-13T02:32:13.475Z,10.07
2016-04-13T02:33:12.853Z,10.13
2016-04-13T02:34:13.106Z,10.03
2016-04-13T02:35:25.655Z,9.99
2016-04-13T02:36:13.080Z,10.05
2016-04-13T02:37:12.926Z,9.94
2016-04-13T02:38:12.944Z,9.95
2016-04-13T02:39:19.259Z,9.95
2016-04-13T02:40:19.247Z,9.92
2016-04-13T02:41:13.014Z,9.94
2016-04-13T02:42:25.767Z,9.92
2016-04-13T02:43:19.442Z,10.02
2016-04-13T02:44:13.085Z,9.94
2016-04-13T02:45:13.103Z,10.03
2016-04-13T02:46:13.106Z,9.94
2016-04-13T02:47:19.469Z,9.95
2016-04-13T02:48:13.346Z,9.95
2016-04-13T02:49:13.224Z,9.94
2016-04-13T02:50:13.179Z,9.97
2016-04-13T02:51:19.541Z,9.95
2016-04-13T02:52:13.201Z,10.03
2016-04-13T02:53:25.968Z,9.95
2016-04-13T02:54:13.096Z,10.07
2016-04-13T02:55:13.286Z,10.02
2016-04-13T02:56:13.289Z,9.92
2016-04-13T02:57:13.307Z,9.91
2016-04-13T02:58:19.591Z,10
2016-04-13T02:59:13.344Z,10.07
2016-04-13T03:00:13.597Z,10.07
2016-04-13T03:01:13.381Z,10.06
2016-04-13T03:02:13.400Z,9.95
2016-04-13T03:03:13.417Z,9.95
2016-04-13T03:04:13.451Z,9.99
2016-04-13T03:05:26.189Z,9.97
2016-04-13T03:06:19.786Z,9.92
2016-04-13T03:07:32.728Z,9.92
2016-04-13T03:08:32.355Z,9.9
2016-04-13T03:09:19.652Z,9.88
2016-04-13T03:10:38.861Z,9.87
2016-04-13T03:11:19.674Z,9.88
2016-04-13T03:12:51.022Z,9.85
2016-04-13T03:13:32.462Z,9.82
2016-04-13T03:15:29.297Z,9.85
2016-04-13T03:16:29.330Z,9.82
2016-04-13T03:17:41.927Z,9.82
2016-04-13T03:18:29.366Z,9.85
2016-04-13T03:19:29.385Z,9.74
2016-04-13T03:20:29.372Z,9.82
2016-04-13T03:21:29.547Z,9.73
2016-04-13T03:22:29.440Z,9.81
2016-04-13T03:23:42.192Z,9.77
2016-04-13T03:24:29.492Z,9.74
2016-04-13T03:25:43.651Z,9.67
2016-04-13T03:26:29.512Z,9.77
2016-04-13T03:27:55.187Z,9.82
2016-04-13T03:28:39.081Z,9.82
2016-04-13T03:29:58.287Z,9.87
2016-04-13T03:31:13.509Z,9.91
2016-04-13T03:32:13.542Z,9.99
2016-04-13T03:33:13.561Z,10.05
2016-04-13T03:34:13.595Z,10.07
2016-04-13T03:35:26.347Z,10.12
2016-04-13T03:36:19.741Z,10.21
2016-04-13T03:37:39.308Z,10.2
2016-04-13T03:38:55.139Z,10.23
2016-04-13T03:39:23.202Z,10.31
2016-04-13T03:41:38.511Z,10.33
2016-04-13T03:42:38.467Z,10.27
2016-04-13T03:44:09.783Z,10.31
2016-04-13T03:44:51.051Z,10.27
2016-04-13T03:46:45.118Z,10.33
2016-04-13T03:47:10.399Z,10.3
2016-04-13T03:48:10.434Z,10.33
2016-04-13T03:49:16.718Z,10.3
2016-04-13T03:50:12.017Z,10.3
2016-04-13T03:51:11.910Z,10.27
2016-04-13T03:52:10.507Z,10.31
2016-04-13T03:53:23.259Z,10.33
2016-04-13T03:54:10.590Z,10.31
2016-04-13T03:55:29.768Z,10.34
2016-04-13T03:56:39.333Z,10.33
2016-04-13T03:57:23.192Z,10.21
2016-04-13T03:58:48.917Z,10.3
2016-04-13T04:00:29.797Z,10.38
2016-04-13T04:01:04.750Z,10.3
2016-04-13T04:01:58.581Z,10.31
2016-04-13T04:03:11.255Z,10.36
2016-04-13T04:03:58.586Z,10.27
2016-04-13T04:05:17.777Z,10.39
2016-04-13T04:05:59.982Z,10.28
2016-04-13T04:07:24.266Z,10.38
2016-04-13T04:08:01.628Z,10.28
2016-04-13T04:10:08.290Z,10.33
2016-04-13T04:12:23.217Z,10.34
2016-04-13T04:13:23.408Z,10.45
2016-04-13T04:15:57.947Z,10.36
2016-04-13T04:16:38.621Z,10.42
2016-04-13T04:18:09.937Z,10.3
2016-04-13T04:18:53.815Z,10.34
2016-04-13T04:19:53.817Z,10.42
2016-04-13T04:21:19.570Z,10.39
2016-04-13T04:22:03.431Z,10.43
2016-04-13T04:23:03.465Z,10.39
2016-04-13T04:24:03.484Z,10.34
2016-04-13T04:25:16.237Z,10.34
2016-04-13T04:26:09.833Z,10.45
2016-04-13T04:27:22.726Z,10.42
2016-04-13T04:28:22.760Z,10.33
2016-04-13T04:29:03.576Z,10.3
2016-04-13T04:30:34.909Z,10.3
2016-04-13T04:31:16.237Z,10.36
2016-04-13T04:32:13.146Z,10.46
2016-04-13T04:33:32.386Z,10.42
2016-04-13T04:34:41.936Z,10.38
2016-04-13T04:35:35.485Z,10.36
2016-04-13T04:36:19.641Z,10.46
2016-04-13T04:37:19.378Z,10.42
2016-04-13T04:38:19.553Z,10.42
2016-04-13T04:39:32.167Z,10.46
2016-04-13T04:40:19.636Z,10.33
2016-04-13T04:41:38.673Z,10.36
2016-04-13T04:42:51.223Z,10.34
2016-04-13T04:43:22.630Z,10.33
2016-04-13T04:45:35.449Z,10.43
2016-04-13T04:46:22.605Z,10.34
2016-04-13T04:47:48.313Z,10.33
2016-04-13T04:48:22.626Z,10.42
2016-04-13T04:50:22.694Z,10.43
2016-04-13T04:51:22.697Z,10.41
2016-04-13T04:52:28.981Z,10.48
2016-04-13T04:53:22.749Z,10.53
2016-04-13T04:54:35.551Z,10.51
2016-04-13T04:55:22.770Z,10.53
2016-04-13T04:56:22.898Z,10.53
2016-04-13T04:57:22.838Z,10.51
2016-04-13T04:58:22.857Z,10.57
2016-04-13T04:59:35.612Z,10.59
2016-04-13T05:00:24.331Z,10.55
2016-04-13T05:01:42.086Z,10.65
2016-04-13T05:02:22.898Z,10.65
2016-04-13T05:03:48.654Z,10.77
2016-04-13T05:04:32.656Z,10.71
2016-04-13T05:05:51.800Z,10.71
2016-04-13T05:07:01.459Z,10.79
2016-04-13T05:07:35.742Z,10.77
2016-04-13T05:09:50.952Z,10.71
2016-04-13T05:10:51.017Z,10.83
2016-04-13T05:12:03.722Z,10.83
2016-04-13T05:12:57.866Z,10.87
2016-04-13T05:14:10.227Z,10.92
2016-04-13T05:14:51.043Z,10.87
2016-04-13T05:16:16.732Z,10.83
2016-04-13T05:17:03.813Z,10.84
2016-04-13T05:18:22.394Z,10.77
2016-04-13T05:19:06.413Z,10.79
2016-04-13T05:20:06.416Z,10.75
2016-04-13T05:22:21.688Z,10.8
2016-04-13T05:23:21.657Z,10.76
2016-04-13T05:24:27.957Z,10.68
2016-04-13T05:25:27.976Z,10.77
2016-04-13T05:26:21.729Z,10.77
2016-04-13T05:27:40.968Z,10.75
2016-04-13T05:28:28.062Z,10.67
2016-04-13T05:29:47.490Z,10.58
2016-04-13T05:30:31.381Z,10.61
2016-04-13T05:31:31.445Z,10.61
2016-04-13T05:32:31.432Z,10.59
2016-04-13T05:33:37.704Z,10.69
2016-04-13T05:34:31.470Z,10.75
2016-04-13T05:35:37.740Z,10.76
2016-04-13T05:36:31.522Z,10.75
2016-04-13T05:37:31.524Z,10.84
2016-04-13T05:38:37.825Z,10.87
2016-04-13T05:39:57.220Z,11
2016-04-13T05:40:31.579Z,10.98
2016-04-13T05:42:02.897Z,11.12
2016-04-13T05:42:41.133Z,11.1
2016-04-13T05:43:41.168Z,11.13
2016-04-13T05:44:53.889Z,11.07
2016-04-13T05:45:41.782Z,11.07
2016-04-13T05:47:00.426Z,11.07
2016-04-13T05:47:44.319Z,11
2016-04-13T05:48:44.431Z,10.94
2016-04-13T05:50:15.637Z,10.98
2016-04-13T05:50:44.968Z,10.98
2016-04-13T05:51:44.376Z,10.98
2016-04-13T05:52:50.692Z,10.98
2016-04-13T05:53:44.758Z,11.16
2016-04-13T05:54:57.166Z,11.2
2016-04-13T05:55:44.450Z,11.35
2016-04-13T05:57:03.687Z,11.62
2016-04-13T05:57:57.221Z,12.17
2016-04-13T05:59:15.818Z,13.06
2016-04-13T05:59:44.554Z,13.23
2016-04-13T06:02:22.045Z,12.93
2016-04-13T06:03:02.890Z,12.75
2016-04-13T06:04:02.815Z,12.65
2016-04-13T06:05:04.255Z,12.39
2016-04-13T06:06:02.853Z,12.23
2016-04-13T06:07:03.214Z,12.15
2016-04-13T06:08:09.170Z,12.08
2016-04-13T06:09:15.642Z,11.97
2016-04-13T06:10:22.191Z,11.95
2016-04-13T06:11:28.631Z,11.76
2016-04-13T06:12:34.372Z,11.51
2016-04-13T06:13:03.012Z,11.51
2016-04-13T06:14:03.030Z,11.37
2016-04-13T06:15:03.032Z,11.41
2016-04-13T06:16:09.300Z,11.55
2016-04-13T06:17:09.382Z,11.53
2016-04-13T06:18:16.493Z,11.63
2016-04-13T06:19:03.277Z,11.67
2016-04-13T06:20:22.936Z,11.71
2016-04-13T06:21:15.893Z,11.78
2016-04-13T06:22:28.848Z,11.73
2016-04-13T06:23:19.008Z,11.62
2016-04-13T06:24:38.418Z,11.6
2016-04-13T06:25:12.762Z,11.59
2016-04-13T06:26:38.440Z,11.71
2016-04-13T06:27:16.784Z,11.63
2016-04-13T06:28:16.693Z,11.78
2016-04-13T06:29:23.023Z,11.76
2016-04-13T06:30:16.729Z,11.71
2016-04-13T06:31:16.966Z,11.73
2016-04-13T06:32:23.078Z,11.78
2016-04-13T06:33:23.065Z,11.85
2016-04-13T06:34:29.552Z,11.99
2016-04-13T06:35:36.089Z,11.95
2016-04-13T06:36:36.060Z,11.8
2016-04-13T06:37:51.251Z,11.67
2016-04-13T06:38:51.300Z,11.71
2016-04-13T06:40:04.021Z,11.51
2016-04-13T06:40:51.322Z,11.49
2016-04-13T06:41:51.324Z,11.38
2016-04-13T06:42:51.967Z,11.35
2016-04-13T06:44:04.110Z,11.33
2016-04-13T06:44:52.035Z,11.26
2016-04-13T06:46:10.631Z,11.16
2016-04-13T06:47:04.181Z,11.23
2016-04-13T06:48:22.761Z,11.01
2016-04-13T06:48:51.468Z,11.05
2016-04-13T06:50:29.126Z,11.05
2016-04-13T06:51:07.349Z,11
2016-04-13T06:52:33.069Z,11.07
2016-04-13T06:53:20.166Z,11.02
2016-04-13T06:54:07.434Z,11.05
2016-04-13T06:56:04.440Z,11.18
2016-04-13T06:56:17.033Z,11.22
2016-04-13T06:57:29.880Z,11.27
2016-04-13T06:58:24.851Z,11.3
2016-04-13T06:59:17.088Z,11.41
2016-04-13T07:00:17.107Z,11.62
2016-04-13T07:02:32.315Z,11.78
2016-04-13T07:03:32.334Z,11.83
2016-04-13T07:04:32.367Z,11.96
2016-04-13T07:05:32.354Z,12
2016-04-13T07:06:32.373Z,12.23
2016-04-13T07:07:33.031Z,12.44
2016-04-13T07:08:45.146Z,12.7
2016-04-13T07:09:45.195Z,13.27
2016-04-13T07:10:32.836Z,13.68
2016-04-13T07:11:32.495Z,14.31
2016-04-13T07:12:44.500Z,14.58
2016-04-13T07:13:58.191Z,15.88
2016-04-13T07:14:32.550Z,16.4
2016-04-13T07:16:47.746Z,17.19
2016-04-13T07:18:13.530Z,17.72
2016-04-13T07:19:00.455Z,17.87
2016-04-13T07:21:13.414Z,17.27
2016-04-13T07:22:13.807Z,17.16
2016-04-13T07:23:26.185Z,16.8
2016-04-13T07:24:26.219Z,16.54
2016-04-13T07:25:32.705Z,16.26
2016-04-13T07:26:39.210Z,16.03
2016-04-13T07:27:13.554Z,15.88
2016-04-13T07:28:44.872Z,15.76
2016-04-13T07:29:48.781Z,16.1
2016-04-13T07:30:54.440Z,16.13
2016-04-13T07:31:38.333Z,16.06
2016-04-13T07:33:49.323Z,15.69
2016-04-13T07:34:49.356Z,15.59
2016-04-13T07:35:50.813Z,15.87
2016-04-13T07:36:49.409Z,16.08
2016-04-13T07:37:52.459Z,16.05
2016-04-13T07:38:56.446Z,16.12
2016-04-13T07:39:55.776Z,16.24
2016-04-13T07:40:48.858Z,16.03
2016-04-13T07:41:49.532Z,15.92
2016-04-13T07:42:55.816Z,15.75
2016-04-13T07:43:50.178Z,15.62
2016-04-13T07:45:02.336Z,15.44
2016-04-13T07:46:02.355Z,15.52
2016-04-13T07:46:49.639Z,15.37
2016-04-13T07:48:08.876Z,15.75
2016-04-13T07:48:59.113Z,15.84
2016-04-13T07:50:12.100Z,16.06
2016-04-13T07:51:11.900Z,15.98
2016-04-13T07:52:18.606Z,16.29
2016-04-13T07:53:12.280Z,16.21
2016-04-13T07:53:56.361Z,16.25
2016-04-13T07:55:22.066Z,16.39
2016-04-13T07:56:37.260Z,16.49
2016-04-13T07:58:34.731Z,15.52
2016-04-13T07:59:28.313Z,15.22
2016-04-13T08:00:43.505Z,14.93
2016-04-13T08:01:37.899Z,14.74
2016-04-13T08:02:12.258Z,14.68
2016-04-13T08:04:09.248Z,14.67
2016-04-13T08:04:53.156Z,14.74
2016-04-13T08:06:56.334Z,14.82
2016-04-13T08:07:31.256Z,14.92
2016-04-13T08:08:24.872Z,14.94
2016-04-13T08:09:44.252Z,15.15
2016-04-13T08:10:25.143Z,15.3
2016-04-13T08:12:28.289Z,15.35
2016-04-13T08:12:40.869Z,15.45
2016-04-13T08:13:40.889Z,15.55
2016-04-13T08:14:40.907Z,15.67
2016-04-13T08:15:41.144Z,15.88
2016-04-13T08:16:41.163Z,15.84
2016-04-13T08:17:53.743Z,16.05
2016-04-13T08:18:40.996Z,16.06
2016-04-13T08:20:00.311Z,16.28
2016-04-13T08:20:44.219Z,16.24
2016-04-13T08:22:03.457Z,15.99
2016-04-13T08:22:50.522Z,15.85
2016-04-13T08:25:01.044Z,15.52
2016-04-13T08:26:00.921Z,15.67
2016-04-13T08:27:00.955Z,15.57
2016-04-13T08:28:13.707Z,15.44
2016-04-13T08:29:20.179Z,15.37
2016-04-13T08:30:20.198Z,15.51
2016-04-13T08:31:20.231Z,15.81
2016-04-13T08:32:26.937Z,15.96
2016-04-13T08:33:20.283Z,16.21
2016-04-13T08:34:04.161Z,16.24
2016-04-13T08:35:04.195Z,16.28
2016-04-13T08:36:04.228Z,16.26
2016-04-13T08:37:12.107Z,16.18
2016-04-13T08:38:17.000Z,15.87
2016-04-13T08:39:04.284Z,15.75
2016-04-13T08:41:01.289Z,15.76
2016-04-13T08:41:39.542Z,15.72
2016-04-13T08:42:26.605Z,15.45
2016-04-13T08:45:00.893Z,15.14
2016-04-13T08:45:41.880Z,15.1
2016-04-13T08:46:41.883Z,15.08
2016-04-13T08:47:48.246Z,14.97
2016-04-13T08:49:07.405Z,15.02
2016-04-13T08:50:01.173Z,15
2016-04-13T08:50:42.066Z,14.97
2016-04-13T08:52:51.774Z,15.08
2016-04-13T08:53:51.808Z,15.18
2016-04-13T08:54:51.827Z,15.29
2016-04-13T08:55:51.830Z,15.35
2016-04-13T08:57:04.583Z,15.5
2016-04-13T08:57:52.491Z,15.54
2016-04-13T08:58:51.901Z,15.63
2016-04-13T09:00:04.653Z,15.62
2016-04-13T09:00:52.140Z,15.52
2016-04-13T09:03:01.676Z,15.52
2016-04-13T09:03:20.520Z,15.54
2016-04-13T09:06:01.403Z,15.72
2016-04-13T09:06:35.794Z,15.57
2016-04-13T09:08:07.081Z,15.67
2016-04-13T09:08:36.409Z,15.67
2016-04-13T09:09:36.427Z,15.59
2016-04-13T09:10:35.851Z,15.6
2016-04-13T09:11:43.544Z,15.66
2016-04-13T09:12:48.641Z,15.65
2016-04-13T09:13:55.128Z,15.72
2016-04-13T09:14:55.334Z,15.87
2016-04-13T09:16:01.649Z,15.94
2016-04-13T09:16:45.542Z,15.96
2016-04-13T09:17:45.544Z,16.05
2016-04-13T09:19:55.175Z,16.41
2016-04-13T09:20:55.210Z,16.51
2016-04-13T09:22:01.463Z,16.55
2016-04-13T09:23:01.511Z,16.82
2016-04-13T09:24:07.999Z,17.07
2016-04-13T09:25:08.001Z,17.37
2016-04-13T09:26:14.504Z,17.54
2016-04-13T09:26:55.304Z,17.71
2016-04-13T09:27:55.354Z,18.03
2016-04-13T09:29:01.653Z,18.15
2016-04-13T09:29:55.390Z,18.12
2016-04-13T09:31:08.143Z,18.24
2016-04-13T09:31:55.442Z,18.24
2016-04-13T09:32:55.460Z,18.08
2016-04-13T09:34:01.759Z,17.76
2016-04-13T09:35:14.090Z,17.75
2016-04-13T09:36:08.265Z,17.98
2016-04-13T09:36:55.564Z,18.16
2016-04-13T09:38:14.787Z,18.21
2016-04-13T09:38:55.601Z,18.34
2016-04-13T09:40:21.307Z,18.37
2016-04-13T09:41:30.856Z,18.46
2016-04-13T09:42:24.437Z,18.61
2016-04-13T09:43:05.300Z,18.68
2016-04-13T09:44:24.458Z,18.51
2016-04-13T09:45:08.352Z,18.49
2016-04-13T09:46:27.839Z,18.27
2016-04-13T09:47:14.669Z,18.31
2016-04-13T09:48:39.769Z,18.15
2016-04-13T09:49:21.035Z,18.16
2016-04-13T09:50:09.881Z,18.26
2016-04-13T09:51:08.494Z,18.39
2016-04-13T09:52:27.746Z,18.12
2016-04-13T09:53:35.671Z,18.03
2016-04-13T09:54:08.572Z,17.91
2016-04-13T09:56:15.376Z,17.75
2016-04-13T09:57:15.191Z,17.71
2016-04-13T09:58:15.710Z,17.76
2016-04-13T09:59:21.682Z,17.73
2016-04-13T10:00:28.177Z,17.38
2016-04-13T10:01:15.458Z,17.38
2016-04-13T10:02:34.664Z,17.14
2016-04-13T10:03:34.542Z,17.14
2016-04-13T10:05:18.148Z,17.17
2016-04-13T10:05:56.401Z,17.17
2016-04-13T10:06:30.792Z,17.04
2016-04-13T10:07:30.653Z,16.84
2016-04-13T10:08:37.062Z,16.79
2016-04-13T10:09:30.814Z,16.84
2016-04-13T10:10:30.848Z,16.83
2016-04-13T10:11:30.851Z,16.97
2016-04-13T10:12:42.747Z,16.89
2016-04-13T10:13:37.872Z,16.84
2016-04-13T10:14:45.081Z,16.69
2016-04-13T10:15:41.128Z,16.69
2016-04-13T10:16:36.286Z,16.68
2016-04-13T10:17:30.993Z,16.54
2016-04-13T10:18:50.248Z,16.39
2016-04-13T10:19:31.061Z,16.31
2016-04-13T10:20:56.800Z,16.24
2016-04-13T10:21:40.785Z,16.22
2016-04-13T10:22:40.928Z,16.28
2016-04-13T10:23:42.244Z,16.22
2016-04-13T10:24:53.593Z,16.18
2016-04-13T10:26:00.096Z,16.29
2016-04-13T10:27:00.082Z,16.41
2016-04-13T10:28:43.522Z,16.49
2016-04-13T10:29:15.322Z,16.57
2016-04-13T10:29:56.278Z,16.59
2016-04-13T10:31:15.381Z,16.57
2016-04-13T10:32:02.478Z,16.5
2016-04-13T10:32:56.528Z,16.64
2016-04-13T10:34:15.498Z,16.8
2016-04-13T10:34:59.267Z,16.83
2016-04-13T10:35:59.286Z,16.97
2016-04-13T10:37:30.725Z,17.24
2016-04-13T10:38:09.117Z,17.34
2016-04-13T10:39:09.167Z,17.24
2016-04-13T10:40:09.185Z,17.3
2016-04-13T10:41:09.781Z,17.37
2016-04-13T10:42:15.487Z,17.53
2016-04-13T10:43:21.975Z,17.65
2016-04-13T10:44:22.024Z,17.76
2016-04-13T10:45:28.605Z,18.02
2016-04-13T10:46:28.638Z,17.93
2016-04-13T10:47:12.672Z,17.87
2016-04-13T10:48:12.691Z,17.75
2016-04-13T10:49:39.819Z,17.66
2016-04-13T10:50:12.743Z,17.82
2016-04-13T10:51:12.777Z,17.79
2016-04-13T10:52:38.466Z,17.86
2016-04-13T10:53:12.829Z,17.79
2016-04-13T10:54:12.847Z,17.63
2016-04-13T10:55:26.225Z,17.59
2016-04-13T10:56:34.056Z,17.66
2016-04-13T10:58:55.471Z,17.27
2016-04-13T10:59:51.174Z,17.3
2016-04-13T11:01:21.110Z,17.37
2016-04-13T11:02:28.033Z,17.41
2016-04-13T11:03:59.205Z,17.72
2016-04-13T11:05:25.719Z,17.97
2016-04-13T11:05:52.578Z,18.03
2016-04-13T11:07:17.887Z,18.13
2016-04-13T11:08:26.061Z,18.24
2016-04-13T11:10:00.049Z,18.16
2016-04-13T11:10:54.927Z,17.86
2016-04-13T11:12:31.367Z,17.68
2016-04-13T11:13:20.016Z,17.39
2016-04-13T11:15:16.282Z,17.16
2016-04-13T11:16:06.547Z,16.94
2016-04-13T11:16:57.615Z,16.87
2016-04-13T11:18:14.108Z,16.97
2016-04-13T11:19:22.723Z,17.28
2016-04-13T11:20:30.712Z,17.72
2016-04-13T11:21:39.418Z,18.13
2016-04-13T11:22:34.296Z,18.63
2016-04-13T11:23:16.128Z,18.39
2016-04-13T11:24:39.914Z,18.34
2016-04-13T11:25:14.851Z,18.42
2016-04-13T11:27:16.907Z,18.55
2016-04-13T11:27:29.485Z,18.49
2016-04-13T11:28:29.597Z,18.37
2016-04-13T11:29:29.539Z,18.09
2016-04-13T11:30:42.370Z,18
2016-04-13T11:31:36.466Z,17.94
2016-04-13T11:33:26.581Z,17.72
2016-04-13T11:33:51.909Z,17.59
2016-04-13T11:35:48.727Z,17.3
2016-04-13T11:37:11.917Z,16.91
2016-04-13T11:38:11.951Z,17.04
2016-04-13T11:39:18.221Z,16.89
2016-04-13T11:40:12.002Z,16.87
2016-04-13T11:41:12.005Z,16.82
2016-04-13T11:42:18.323Z,16.68
2016-04-13T11:43:12.089Z,16.61
2016-04-13T11:44:13.529Z,16.55
2016-04-13T11:45:19.018Z,16.57
2016-04-13T11:46:31.382Z,16.72
2016-04-13T11:47:25.103Z,16.86
2016-04-13T11:48:43.496Z,17.13
2016-04-13T11:49:27.390Z,17.16
2016-04-13T11:50:46.611Z,17.19
2016-04-13T11:51:30.550Z,17.05
2016-04-13T11:52:30.584Z,16.72
2016-04-13T11:54:02.509Z,16.43
2016-04-13T11:54:40.762Z,16.44
2016-04-13T11:56:06.453Z,16.68
2016-04-13T11:56:44.611Z,16.98
2016-04-13T11:57:44.723Z,17.14
2016-04-13T11:58:51.022Z,17.17
2016-04-13T11:59:44.963Z,17.19
2016-04-13T12:00:57.528Z,17.07
2016-04-13T12:01:51.078Z,16.87
2016-04-13T12:02:44.861Z,16.82
2016-04-13T12:03:57.614Z,16.64
2016-04-13T12:04:44.930Z,16.55
2016-04-13T12:06:41.888Z,16.77
2016-04-13T12:06:55.107Z,16.79
2016-04-13T12:07:55.032Z,16.62
2016-04-13T12:09:01.488Z,16.44
2016-04-13T12:10:07.881Z,16.4
2016-04-13T12:10:56.603Z,16.28
2016-04-13T12:12:08.184Z,16.61
2016-04-13T12:13:07.967Z,16.43
2016-04-13T12:14:14.470Z,16.43
2016-04-13T12:14:55.270Z,16.49
2016-04-13T12:16:53.713Z,16.66
2016-04-13T12:18:03.341Z,17.05
2016-04-13T12:18:44.733Z,17.23
2016-04-13T12:19:32.236Z,17.32
2016-04-13T12:20:51.239Z,17.28
2016-04-13T12:21:38.335Z,17.42
2016-04-13T12:22:57.698Z,17.34
2016-04-13T12:23:47.857Z,17.24
2016-04-13T12:25:07.296Z,17.16
2016-04-13T12:26:00.831Z,16.97
2016-04-13T12:27:47.477Z,16.84
2016-04-13T12:28:16.071Z,16.79
2016-04-13T12:29:16.073Z,16.64
2016-04-13T12:30:18.826Z,16.49
2016-04-13T12:31:22.409Z,16.34
2016-04-13T12:32:31.944Z,16.26
2016-04-13T12:33:28.915Z,16.29
2016-04-13T12:34:41.981Z,16.21
2016-04-13T12:35:35.654Z,16.34
2016-04-13T12:36:47.688Z,16.28
2016-04-13T12:37:50.785Z,16.4
2016-04-13T12:38:29.037Z,16.51
2016-04-13T12:40:31.668Z,16.72
2016-04-13T12:41:15.543Z,16.74
2016-04-13T12:41:53.812Z,16.83
2016-04-13T12:44:09.005Z,16.97
2016-04-13T12:45:09.022Z,16.8
2016-04-13T12:46:09.056Z,16.62
2016-04-13T12:47:09.075Z,16.79
2016-04-13T12:48:28.314Z,17.05
2016-04-13T12:49:15.377Z,17.05
2016-04-13T12:51:18.867Z,17.01
2016-04-13T12:51:31.448Z,16.94
2016-04-13T12:54:05.984Z,17.02
2016-04-13T12:54:46.830Z,17.14
2016-04-13T12:55:46.943Z,17.24
2016-04-13T12:56:46.852Z,17.37
2016-04-13T12:57:46.886Z,17.41
2016-04-13T12:58:53.466Z,17.3
2016-04-13T12:59:46.938Z,16.97
2016-04-13T13:01:06.159Z,16.51
2016-04-13T13:02:15.709Z,16.68
2016-04-13T13:03:09.259Z,16.66
2016-04-13T13:04:18.824Z,16.57
2016-04-13T13:05:05.905Z,16.29
2016-04-13T13:07:21.147Z,16.03
2016-04-13T13:08:08.490Z,15.84
2016-04-13T13:09:34.137Z,15.6
2016-04-13T13:10:18.028Z,15.57
2016-04-13T13:11:43.751Z,15.43
2016-04-13T13:12:58.941Z,15.51
2016-04-13T13:13:58.976Z,15.47
2016-04-13T13:14:59.603Z,15.52
2016-04-13T13:16:05.294Z,15.51
2016-04-13T13:17:05.515Z,15.52
2016-04-13T13:18:11.611Z,15.73
2016-04-13T13:19:11.833Z,15.87
2016-04-13T13:21:08.760Z,16.31
2016-04-13T13:22:21.482Z,16.34
2016-04-13T13:23:09.453Z,16.41
2016-04-13T13:24:34.458Z,16.44
2016-04-13T13:25:28.679Z,16.49
2016-04-13T13:26:40.135Z,16.66
2016-04-13T13:27:09.448Z,16.66
2016-04-13T13:28:08.701Z,16.66
2016-04-13T13:29:21.594Z,16.47
2016-04-13T13:30:09.487Z,16.61
2016-04-13T13:31:34.587Z,16.59
2016-04-13T13:32:18.524Z,16.44
2016-04-13T13:33:37.701Z,16.12
2016-04-13T13:34:19.935Z,16.09
2016-04-13T13:35:18.532Z,15.94
2016-04-13T13:36:18.566Z,15.8
2016-04-13T13:38:33.871Z,15.52
2016-04-13T13:39:33.811Z,15.33
2016-04-13T13:40:33.814Z,15.35
2016-04-13T13:41:46.614Z,15.35
2016-04-13T13:42:33.881Z,15.45
2016-04-13T13:43:53.103Z,15.6
2016-04-13T13:44:34.543Z,15.72
2016-04-13T13:45:33.953Z,15.62
2016-04-13T13:46:33.986Z,15.45
2016-04-13T13:47:34.613Z,15.45
2016-04-13T13:48:34.225Z,15.41
2016-04-13T13:49:34.072Z,15.48
2016-04-13T13:50:34.278Z,15.43
2016-04-13T13:51:34.187Z,15.45
2016-04-13T13:52:33.486Z,15.39
2016-04-13T13:53:34.146Z,15.3
2016-04-13T13:54:47.102Z,15.36
2016-04-13T13:55:40.448Z,15.5